createdAt,value
2022-11-16T00:02:13.951Z,99012.13
2022-11-16T00:04:40.600Z,99009.88
2022-11-16T00:07:07.191Z,99014.38
2022-11-16T00:09:33.878Z,99014.38
2022-11-16T00:12:03.515Z,99020.19
2022-11-16T00:14:33.517Z,99015.53
2022-11-16T00:17:00.352Z,99007.69
2022-11-16T00:19:27.466Z,99006.66
2022-11-16T00:21:54.002Z,99011.97
2022-11-16T00:24:22.756Z,99016.03
2022-11-16T00:26:50.415Z,99013.09
2022-11-16T00:29:19.600Z,99011.44
2022-11-16T00:31:46.878Z,99016.84
2022-11-16T00:34:14.293Z,99015.16
2022-11-16T00:36:41.449Z,99017.88
2022-11-16T00:39:11.508Z,99016.00
2022-11-16T00:41:38.056Z,99020.19
2022-11-16T00:44:05.193Z,99017.31
2022-11-16T00:46:32.185Z,99024.63
2022-11-16T00:48:58.827Z,99014.72
2022-11-16T00:51:25.418Z,99016.16
2022-11-16T00:53:51.956Z,99025.56
2022-11-16T00:56:19.083Z,99023.63
2022-11-16T00:58:45.753Z,99026.06
2022-11-16T01:01:13.072Z,99019.69
2022-11-16T01:03:40.602Z,99014.03
2022-11-16T01:06:28.012Z,99017.66
2022-11-16T01:09:14.763Z,99014.22
2022-11-16T01:12:09.980Z,99014.22
2022-11-16T01:14:57.303Z,99014.31
2022-11-16T01:17:44.681Z,99005.63
2022-11-16T01:20:31.096Z,99005.81
2022-11-16T01:22:57.791Z,98996.88
2022-11-16T01:25:24.551Z,99001.44
2022-11-16T01:27:51.280Z,98988.88
2022-11-16T01:30:25.258Z,99000.81
2022-11-16T01:33:02.243Z,98984.09
2022-11-16T01:35:28.787Z,98981.59
2022-11-16T01:37:55.742Z,98978.16
2022-11-16T01:40:23.171Z,98983.47
2022-11-16T01:42:50.095Z,98977.09
2022-11-16T01:45:17.052Z,98982.84
2022-11-16T01:47:44.513Z,98980.97
2022-11-16T01:50:18.406Z,98979.94
2022-11-16T01:53:03.795Z,98982.09
2022-11-16T01:55:38.747Z,98978.25
2022-11-16T01:58:25.807Z,98976.69
2022-11-16T02:00:58.784Z,98982.47
2022-11-16T02:03:53.566Z,98988.44
2022-11-16T02:07:02.053Z,98979.94
2022-11-16T02:10:00.895Z,98984.22
2022-11-16T02:12:54.783Z,98981.34
2022-11-16T02:15:56.130Z,98979.28
2022-11-16T02:19:24.977Z,98977.75
2022-11-16T02:22:05.531Z,98985.00
2022-11-16T02:25:26.209Z,98980.25
2022-11-16T02:28:05.065Z,98978.97
2022-11-16T02:30:31.630Z,98981.78
2022-11-16T02:33:08.301Z,98980.09
2022-11-16T02:35:49.956Z,98976.16
2022-11-16T02:38:25.361Z,98975.50
2022-11-16T02:40:57.837Z,98969.34
2022-11-16T02:43:46.801Z,98978.25
2022-11-16T02:46:21.043Z,98971.06
2022-11-16T02:48:53.376Z,98978.13
2022-11-16T02:51:21.734Z,98977.97
2022-11-16T02:54:01.277Z,98978.69
2022-11-16T02:56:30.093Z,98981.31
2022-11-16T02:59:00.247Z,98980.84
2022-11-16T03:01:36.649Z,98977.69
2022-11-16T03:04:14.210Z,98987.00
2022-11-16T03:06:46.461Z,98984.00
2022-11-16T03:09:19.175Z,98984.09
2022-11-16T03:11:59.589Z,98991.75
2022-11-16T03:14:34.414Z,99005.16
2022-11-16T03:17:03.654Z,99002.09
2022-11-16T03:19:40.498Z,98989.03
2022-11-16T03:22:36.959Z,98983.16
2022-11-16T03:25:04.992Z,98983.81
2022-11-16T03:27:39.159Z,98980.47
2022-11-16T03:30:13.994Z,98974.13
2022-11-16T03:32:51.252Z,98968.00
2022-11-16T03:35:55.015Z,98969.00
2022-11-16T03:38:23.062Z,98966.97
2022-11-16T03:40:51.589Z,98972.47
2022-11-16T03:43:20.825Z,98976.19
2022-11-16T03:45:48.067Z,98989.13
2022-11-16T03:48:15.240Z,98996.13
2022-11-16T03:50:42.830Z,98992.13
2022-11-16T03:53:09.777Z,99000.97
2022-11-16T03:55:38.269Z,98998.91
2022-11-16T03:58:05.183Z,98996.38
2022-11-16T04:00:32.981Z,98992.00
2022-11-16T04:03:05.670Z,98992.75
2022-11-16T04:05:50.837Z,98998.91
2022-11-16T04:08:37.152Z,99000.41
2022-11-16T04:11:23.263Z,98980.38
2022-11-16T04:14:10.834Z,98969.75
2022-11-16T04:16:59.410Z,98969.59
2022-11-16T04:19:45.295Z,98969.84
2022-11-16T04:22:49.721Z,98974.88
2022-11-16T04:25:24.260Z,98992.56
2022-11-16T04:28:09.582Z,99003.75
2022-11-16T04:30:55.079Z,98993.41
2022-11-16T04:33:40.466Z,99003.84
2022-11-16T04:36:26.432Z,99018.75
2022-11-16T04:38:52.931Z,99016.13
2022-11-16T04:41:40.263Z,99024.13
2022-11-16T04:44:06.768Z,99021.63
2022-11-16T04:46:53.432Z,99018.94
2022-11-16T04:49:20.252Z,99009.34
2022-11-16T04:51:47.011Z,99017.91
2022-11-16T04:54:13.900Z,99022.94
2022-11-16T04:56:40.965Z,99019.69
2022-11-16T04:59:07.544Z,99024.72
2022-11-16T05:01:57.031Z,99022.19
2022-11-16T05:04:23.529Z,99022.47
2022-11-16T05:06:50.438Z,99020.69
2022-11-16T05:09:17.442Z,99018.22
2022-11-16T05:11:44.105Z,99024.06
2022-11-16T05:14:11.969Z,99037.00
2022-11-16T05:16:41.018Z,99034.56
2022-11-16T05:19:26.899Z,99039.53
2022-11-16T05:21:53.856Z,99033.66
2022-11-16T05:24:35.638Z,99029.34
2022-11-16T05:27:06.166Z,99034.13
2022-11-16T05:29:33.323Z,99034.47
2022-11-16T05:32:00.366Z,99028.44
2022-11-16T05:34:28.081Z,99028.16
2022-11-16T05:36:55.285Z,99037.66
2022-11-16T05:39:22.155Z,99043.81
2022-11-16T05:41:52.593Z,99040.09
2022-11-16T05:44:20.199Z,99044.28
2022-11-16T05:46:47.522Z,99043.06
2022-11-16T05:49:16.282Z,99041.56
2022-11-16T05:51:47.717Z,99044.91
2022-11-16T05:54:22.217Z,99046.69
2022-11-16T05:56:49.847Z,99039.06
2022-11-16T05:59:21.584Z,99039.34
2022-11-16T06:01:51.337Z,99033.38
2022-11-16T06:04:24.086Z,99040.53
2022-11-16T06:06:51.080Z,99045.66
2022-11-16T06:09:18.673Z,99052.38
2022-11-16T06:11:46.252Z,99047.25
2022-11-16T06:14:13.224Z,99042.31
2022-11-16T06:16:39.635Z,99043.97
2022-11-16T06:19:08.908Z,99056.38
2022-11-16T06:21:36.144Z,99051.81
2022-11-16T06:24:08.854Z,99062.16
2022-11-16T06:26:36.512Z,99062.31
2022-11-16T06:29:03.551Z,99068.28
2022-11-16T06:31:30.703Z,99065.59
2022-11-16T06:34:00.030Z,99068.13
2022-11-16T06:36:28.377Z,99076.22
2022-11-16T06:38:55.821Z,99071.28
2022-11-16T06:41:22.918Z,99072.66
2022-11-16T06:43:50.674Z,99066.78
2022-11-16T06:46:20.674Z,99070.44
2022-11-16T06:48:47.925Z,99080.78
2022-11-16T06:51:14.406Z,99077.13
2022-11-16T06:53:41.007Z,99088.69
2022-11-16T06:56:09.017Z,99087.19
2022-11-16T06:58:42.900Z,99085.44
2022-11-16T07:01:12.369Z,99084.75
2022-11-16T07:03:41.243Z,99081.50
2022-11-16T07:06:11.092Z,99089.13
2022-11-16T07:08:39.768Z,99077.88
2022-11-16T07:11:08.591Z,99090.72
2022-11-16T07:13:37.188Z,99095.44
2022-11-16T07:16:10.404Z,99095.94
2022-11-16T07:18:41.699Z,99091.06
2022-11-16T07:21:11.826Z,99095.63
2022-11-16T07:23:39.516Z,99098.91
2022-11-16T07:26:09.542Z,99095.53
2022-11-16T07:28:48.429Z,99103.66
2022-11-16T07:31:19.006Z,99110.25
2022-11-16T07:33:46.264Z,99112.28
2022-11-16T07:36:31.350Z,99109.41
2022-11-16T07:38:58.410Z,99110.91
2022-11-16T07:41:24.915Z,99120.16
2022-11-16T07:44:11.772Z,99127.81
2022-11-16T07:46:48.578Z,99118.41
2022-11-16T07:49:18.182Z,99114.53
2022-11-16T07:51:52.777Z,99119.66
2022-11-16T07:54:54.415Z,99128.41
2022-11-16T07:57:23.979Z,99131.97
2022-11-16T07:59:52.143Z,99138.09
2022-11-16T08:02:18.746Z,99146.50
2022-11-16T08:04:45.215Z,99137.94
2022-11-16T08:07:12.367Z,99147.84
2022-11-16T08:09:47.442Z,99149.72
2022-11-16T08:12:16.404Z,99154.09
2022-11-16T08:14:43.454Z,99152.97
2022-11-16T08:17:11.614Z,99160.16
2022-11-16T08:19:40.171Z,99161.44
2022-11-16T08:22:08.513Z,99157.13
2022-11-16T08:24:35.011Z,99159.00
2022-11-16T08:27:01.739Z,99156.13
2022-11-16T08:29:29.300Z,99152.44
2022-11-16T08:31:57.510Z,99155.88
2022-11-16T08:34:24.474Z,99149.56
2022-11-16T08:36:56.466Z,99149.75
2022-11-16T08:39:29.660Z,99152.06
2022-11-16T08:41:56.358Z,99151.41
2022-11-16T08:44:22.786Z,99154.97
2022-11-16T08:46:52.646Z,99153.84
2022-11-16T08:49:46.682Z,99160.84
2022-11-16T08:52:16.150Z,99163.34
2022-11-16T08:54:43.353Z,99154.00
2022-11-16T08:57:10.748Z,99144.13
2022-11-16T08:59:39.058Z,99150.97
2022-11-16T09:02:10.313Z,99155.41
2022-11-16T09:04:37.347Z,99145.44
2022-11-16T09:07:04.289Z,99154.09
2022-11-16T09:09:30.799Z,99156.72
2022-11-16T09:11:57.839Z,99152.34
2022-11-16T09:14:24.405Z,99155.97
2022-11-16T09:16:51.176Z,99159.06
2022-11-16T09:19:17.900Z,99155.09
2022-11-16T09:21:45.495Z,99154.63
2022-11-16T09:24:12.390Z,99150.44
2022-11-16T09:26:38.824Z,99153.84
2022-11-16T09:29:05.475Z,99155.25
2022-11-16T09:31:34.652Z,99142.94
2022-11-16T09:34:02.692Z,99149.38
2022-11-16T09:36:29.963Z,99154.16
2022-11-16T09:42:23.846Z,99151.94
2022-11-16T09:45:14.681Z,99159.09
2022-11-16T09:47:52.002Z,99161.81
2022-11-16T09:50:25.578Z,99153.13
2022-11-16T09:52:55.593Z,99159.00
2022-11-16T09:55:31.402Z,99163.78
2022-11-16T09:58:02.146Z,99150.13
2022-11-16T10:00:30.473Z,99147.03
2022-11-16T10:03:05.616Z,99150.56
2022-11-16T10:05:54.002Z,99150.91
2022-11-16T10:08:39.928Z,99148.16
2022-11-16T10:11:25.770Z,99157.88
2022-11-16T10:14:22.125Z,99159.75
2022-11-16T10:16:58.864Z,99160.19
2022-11-16T10:19:47.449Z,99147.09
2022-11-16T10:22:30.857Z,99158.59
2022-11-16T10:24:59.075Z,99148.34
2022-11-16T10:27:50.336Z,99156.88
2022-11-16T10:30:19.709Z,99151.94
2022-11-16T10:32:56.082Z,99146.78
2022-11-16T10:35:32.615Z,99142.66
2022-11-16T10:38:02.531Z,99139.59
2022-11-16T10:40:36.131Z,99147.63
2022-11-16T10:43:18.664Z,99138.16
2022-11-16T10:46:16.670Z,99136.41
2022-11-16T10:48:54.663Z,99127.19
2022-11-16T10:51:21.135Z,99110.19
2022-11-16T10:53:47.778Z,99111.88
2022-11-16T10:56:37.602Z,99113.53
2022-11-16T10:59:06.762Z,99116.00
2022-11-16T11:01:38.206Z,99108.44
2022-11-16T11:04:27.498Z,99105.84
2022-11-16T11:06:59.496Z,99113.84
2022-11-16T11:09:32.968Z,99117.91
2022-11-16T11:12:39.782Z,99105.31
2022-11-16T11:15:12.251Z,99108.47
2022-11-16T11:17:42.647Z,99102.31
2022-11-16T11:20:15.220Z,99104.88
2022-11-16T11:23:03.516Z,99103.44
2022-11-16T11:25:33.281Z,99105.44
2022-11-16T11:28:28.430Z,99106.47
2022-11-16T11:31:06.267Z,99098.50
2022-11-16T11:33:39.452Z,99101.78
2022-11-16T11:36:09.981Z,99090.56
2022-11-16T11:39:08.937Z,99097.38
2022-11-16T11:41:39.226Z,99088.56
2022-11-16T11:44:14.256Z,99093.00
2022-11-16T11:47:35.142Z,99099.69
2022-11-16T11:49:40.481Z,99091.56
2022-11-16T11:52:17.372Z,99094.91
2022-11-16T11:54:49.465Z,99087.22
2022-11-16T11:57:21.922Z,99089.84
2022-11-16T11:59:54.125Z,99079.81
2022-11-16T12:03:05.215Z,99086.00
2022-11-16T12:05:50.558Z,99072.38
2022-11-16T12:08:38.773Z,99065.78
2022-11-16T12:11:26.577Z,99070.94
2022-11-16T12:14:25.591Z,99069.00
2022-11-16T12:17:12.014Z,99077.00
2022-11-16T12:20:11.515Z,99067.22
2022-11-16T12:23:04.320Z,99064.28
2022-11-16T12:26:00.953Z,99057.03
2022-11-16T12:28:50.925Z,99052.41
2022-11-16T12:31:48.110Z,99051.34
2022-11-16T12:34:53.738Z,99049.06
2022-11-16T12:37:29.448Z,99036.63
2022-11-16T12:40:34.155Z,99048.94
2022-11-16T12:43:41.163Z,99033.53
2022-11-16T12:46:29.949Z,99045.13
2022-11-16T12:49:08.560Z,99047.28
2022-11-16T12:52:11.042Z,99035.81
2022-11-16T12:55:19.105Z,99032.94
2022-11-16T12:57:45.437Z,99029.94
2022-11-16T13:00:14.674Z,99033.19
2022-11-16T13:03:02.673Z,99022.84
2022-11-16T13:05:59.091Z,99016.34
2022-11-16T13:08:54.898Z,99018.28
2022-11-16T13:11:27.241Z,99014.72
2022-11-16T13:14:01.525Z,99014.00
2022-11-16T13:16:29.288Z,99003.13
2022-11-16T13:18:57.899Z,99006.38
2022-11-16T13:21:46.697Z,98998.25
2022-11-16T13:24:35.240Z,98992.97
2022-11-16T13:27:12.898Z,98989.66
2022-11-16T13:29:55.147Z,98985.47
2022-11-16T13:32:57.273Z,98981.63
2022-11-16T13:35:23.934Z,98983.34
2022-11-16T13:37:52.006Z,98984.50
2022-11-16T13:40:30.566Z,98979.72
2022-11-16T13:43:02.744Z,98977.34
2022-11-16T13:45:35.938Z,98963.66
2022-11-16T13:48:06.895Z,98964.69
2022-11-16T13:50:46.247Z,98966.69
2022-11-16T13:56:09.051Z,98959.00
2022-11-16T13:58:43.651Z,98956.03
2022-11-16T14:01:15.743Z,98968.50
2022-11-16T14:03:51.535Z,98979.66
2022-11-16T14:06:24.304Z,98968.91
2022-11-16T14:08:55.742Z,98965.75
2022-11-16T14:11:35.875Z,98964.19
2022-11-16T14:14:10.494Z,98950.34
2022-11-16T14:16:43.105Z,98945.09
2022-11-16T14:19:51.783Z,98952.03
2022-11-16T14:22:56.231Z,98941.53
2022-11-16T14:25:36.412Z,98950.25
2022-11-16T14:28:54.112Z,98936.16
2022-11-16T14:31:25.528Z,98938.50
2022-11-16T14:33:58.603Z,98948.53
2022-11-16T14:36:38.712Z,98943.72
2022-11-16T14:39:15.832Z,98945.47
2022-11-16T14:41:46.873Z,98940.94
2022-11-16T14:44:19.522Z,98941.50
2022-11-16T14:46:46.317Z,98950.09
2022-11-16T14:49:16.075Z,98943.06
2022-11-16T14:51:55.736Z,98940.84
2022-11-16T14:54:38.936Z,98942.63
2022-11-16T14:57:18.283Z,98943.91
2022-11-16T14:59:49.156Z,98946.41
2022-11-16T15:02:26.564Z,98947.59
2022-11-16T15:04:53.733Z,98949.88
2022-11-16T15:07:23.404Z,98942.00
2022-11-16T15:09:56.663Z,98943.91
2022-11-16T15:12:41.980Z,98942.84
2022-11-16T15:15:11.933Z,98932.69
2022-11-16T15:17:40.324Z,98929.06
2022-11-16T15:20:23.414Z,98922.50
2022-11-16T15:22:55.116Z,98926.84
2022-11-16T15:25:28.305Z,98934.09
2022-11-16T15:27:56.673Z,98923.38
2022-11-16T15:30:32.925Z,98927.38
2022-11-16T15:33:09.183Z,98916.69
2022-11-16T15:35:37.332Z,98915.78
2022-11-16T15:38:13.864Z,98908.56
2022-11-16T15:40:43.119Z,98902.31
2022-11-16T15:43:11.644Z,98905.09
2022-11-16T15:46:07.128Z,98895.03
2022-11-16T15:48:38.425Z,98894.63
2022-11-16T15:51:16.848Z,98895.56
2022-11-16T15:53:46.563Z,98898.28
2022-11-16T15:56:28.897Z,98906.34
2022-11-16T15:58:57.998Z,98912.16
2022-11-16T16:01:25.973Z,98903.78
2022-11-16T16:04:04.002Z,98896.78
2022-11-16T16:06:54.248Z,98886.09
2022-11-16T16:09:22.971Z,98880.34
2022-11-16T16:11:49.847Z,98875.13
2022-11-16T16:14:26.882Z,98866.66
2022-11-16T16:16:56.524Z,98875.16
2022-11-16T16:19:29.216Z,98882.38
2022-11-16T16:21:58.419Z,98883.63
2022-11-16T16:24:39.242Z,98882.94
2022-11-16T16:27:10.908Z,98883.97
2022-11-16T16:29:37.579Z,98888.69
2022-11-16T16:32:04.655Z,98886.81
2022-11-16T16:34:31.134Z,98879.25
2022-11-16T16:36:57.557Z,98878.53
2022-11-16T16:39:24.193Z,98879.38
2022-11-16T16:41:50.695Z,98880.97
2022-11-16T16:44:17.377Z,98878.25
2022-11-16T16:46:43.796Z,98872.59
2022-11-16T16:49:10.484Z,98872.78
2022-11-16T16:51:37.096Z,98859.81
2022-11-16T16:54:03.685Z,98859.94
2022-11-16T16:56:30.567Z,98861.81
2022-11-16T16:58:57.064Z,98858.91
2022-11-16T17:01:23.517Z,98861.19
2022-11-16T17:03:50.205Z,98863.69
2022-11-16T17:06:19.899Z,98859.94
2022-11-16T17:08:46.874Z,98863.28
2022-11-16T17:11:15.428Z,98856.59
2022-11-16T17:13:42.214Z,98851.97
2022-11-16T17:16:09.360Z,98849.56
2022-11-16T17:18:35.790Z,98846.13
2022-11-16T17:21:07.405Z,98843.09
2022-11-16T17:23:35.871Z,98833.28
2022-11-16T17:26:07.899Z,98835.06
2022-11-16T17:28:35.021Z,98833.28
2022-11-16T17:31:06.128Z,98823.13
2022-11-16T17:33:37.345Z,98823.19
2022-11-16T17:36:05.387Z,98824.25
2022-11-16T17:38:35.014Z,98825.53
2022-11-16T17:41:10.822Z,98824.34
2022-11-16T17:43:37.856Z,98822.16
2022-11-16T17:46:08.455Z,98821.13
2022-11-16T17:48:36.655Z,98818.81
2022-11-16T17:51:03.672Z,98822.16
2022-11-16T17:53:32.795Z,98820.28
2022-11-16T17:55:59.992Z,98813.59
2022-11-16T17:58:27.982Z,98806.28
2022-11-16T18:00:54.947Z,98807.22
2022-11-16T18:03:23.915Z,98800.31
2022-11-16T18:05:51.746Z,98798.75
2022-11-16T18:08:18.508Z,98793.22
2022-11-16T18:10:45.210Z,98788.31
2022-11-16T18:13:11.601Z,98790.72
2022-11-16T18:15:42.357Z,98783.38
2022-11-16T18:18:09.478Z,98786.84
2022-11-16T18:20:37.415Z,98794.03
2022-11-16T18:23:04.685Z,98797.38
2022-11-16T18:25:34.403Z,98785.16
2022-11-16T18:28:00.908Z,98780.03
2022-11-16T18:30:27.554Z,98773.88
2022-11-16T18:32:54.646Z,98778.47
2022-11-16T18:35:21.111Z,98776.28
2022-11-16T18:37:47.816Z,98769.28
2022-11-16T18:40:14.911Z,98777.00
2022-11-16T18:42:42.667Z,98769.88
2022-11-16T18:45:09.387Z,98778.97
2022-11-16T18:47:36.075Z,98781.50
2022-11-16T18:50:02.653Z,98771.34
2022-11-16T18:52:29.487Z,98770.41
2022-11-16T18:54:55.939Z,98760.69
2022-11-16T18:57:22.726Z,98755.28
2022-11-16T18:59:49.187Z,98757.56
2022-11-16T19:02:15.673Z,98750.66
2022-11-16T19:04:42.625Z,98744.31
2022-11-16T19:07:09.142Z,98741.50
2022-11-16T19:09:36.280Z,98735.63
2022-11-16T19:12:02.775Z,98740.00
2022-11-16T19:14:29.276Z,98733.84
2022-11-16T19:16:57.414Z,98737.72
2022-11-16T19:19:25.251Z,98740.22
2022-11-16T19:21:52.128Z,98749.31
2022-11-16T19:24:18.694Z,98747.22
2022-11-16T19:26:45.263Z,98751.41
2022-11-16T19:29:11.700Z,98747.22
2022-11-16T19:31:38.324Z,98742.00
2022-11-16T19:34:07.273Z,98739.28
2022-11-16T19:36:35.697Z,98741.06
2022-11-16T19:39:02.832Z,98734.88
2022-11-16T19:41:29.830Z,98736.03
2022-11-16T19:43:59.684Z,98742.31
2022-11-16T19:46:31.333Z,98739.38
2022-11-16T19:48:58.803Z,98743.06
2022-11-16T19:51:35.371Z,98741.78
2022-11-16T19:54:02.369Z,98744.59
2022-11-16T19:56:29.024Z,98738.25
2022-11-16T19:58:56.528Z,98743.56
2022-11-16T20:01:27.494Z,98744.41
2022-11-16T20:03:55.894Z,98737.28
2022-11-16T20:06:25.391Z,98740.84
2022-11-16T20:08:55.973Z,98735.44
2022-11-16T20:11:25.076Z,98733.66
2022-11-16T20:13:53.647Z,98724.13
2022-11-16T20:16:23.077Z,98711.38
2022-11-16T20:18:50.951Z,98705.53
2022-11-16T20:21:22.374Z,98697.94
2022-11-16T20:23:50.400Z,98696.25
2022-11-16T20:26:17.843Z,98699.91
2022-11-16T20:28:44.776Z,98701.91
2022-11-16T20:31:16.964Z,98703.16
2022-11-16T20:33:53.832Z,98710.88
2022-11-16T20:36:23.113Z,98712.53
2022-11-16T20:38:50.086Z,98714.50
2022-11-16T20:41:21.810Z,98712.00
2022-11-16T20:43:51.409Z,98713.56
2022-11-16T20:46:19.885Z,98705.84
2022-11-16T20:48:46.821Z,98694.38
2022-11-16T20:51:16.950Z,98694.47
2022-11-16T20:53:44.077Z,98685.69
2022-11-16T20:56:12.632Z,98676.50
2022-11-16T20:58:39.720Z,98680.56
2022-11-16T21:01:07.993Z,98676.41
2022-11-16T21:03:35.275Z,98667.31
2022-11-16T21:06:01.990Z,98663.66
2022-11-16T21:08:31.896Z,98660.84
2022-11-16T21:10:58.347Z,98661.03
2022-11-16T21:13:43.990Z,98665.44
2022-11-16T21:16:13.538Z,98659.28
2022-11-16T21:18:40.821Z,98648.84
2022-11-16T21:21:09.858Z,98658.84
2022-11-16T21:23:37.285Z,98649.66
2022-11-16T21:26:05.795Z,98654.06
2022-11-16T21:28:32.313Z,98646.88
2022-11-16T21:31:01.007Z,98645.09
2022-11-16T21:33:28.271Z,98647.91
2022-11-16T21:35:55.778Z,98648.63
2022-11-16T21:38:27.575Z,98648.84
2022-11-16T21:40:54.213Z,98646.13
2022-11-16T21:43:20.870Z,98643.72
2022-11-16T21:45:48.867Z,98629.44
2022-11-16T21:48:15.385Z,98636.28
2022-11-16T21:50:42.243Z,98639.75
2022-11-16T21:53:09.440Z,98639.63
2022-11-16T21:55:36.369Z,98631.06
2022-11-16T21:58:06.205Z,98630.13
2022-11-16T22:00:32.777Z,98628.56
2022-11-16T22:02:59.320Z,98630.34
2022-11-16T22:05:44.773Z,98623.75
2022-11-16T22:08:12.254Z,98624.19
2022-11-16T22:10:38.825Z,98623.34
2022-11-16T22:13:05.775Z,98627.19
2022-11-16T22:15:32.302Z,98628.25
2022-11-16T22:17:58.786Z,98629.81
2022-11-16T22:20:25.345Z,98628.88
2022-11-16T22:22:51.777Z,98628.78
2022-11-16T22:25:18.514Z,98629.59
2022-11-16T22:28:13.904Z,98619.91
2022-11-16T22:30:34.444Z,98616.66
2022-11-16T22:33:00.867Z,98611.34
2022-11-16T22:35:27.318Z,98607.81
2022-11-16T22:37:54.265Z,98614.25
2022-11-16T22:40:20.676Z,98610.94
2022-11-16T22:42:47.095Z,98606.56
2022-11-16T22:45:13.984Z,98608.34
2022-11-16T22:47:40.552Z,98596.22
2022-11-16T22:50:07.260Z,98601.34
2022-11-16T22:52:33.722Z,98591.94
2022-11-16T22:55:00.465Z,98588.31
2022-11-16T22:57:26.962Z,98582.66
2022-11-16T22:59:53.471Z,98578.06
2022-11-16T23:02:19.913Z,98573.91
2022-11-16T23:04:46.486Z,98573.16
2022-11-16T23:07:13.519Z,98574.72
2022-11-16T23:09:40.719Z,98570.56
2022-11-16T23:12:25.780Z,98570.56
2022-11-16T23:15:11.274Z,98567.00
2022-11-16T23:17:37.702Z,98562.63
2022-11-16T23:20:23.687Z,98557.59
2022-11-16T23:23:08.851Z,98551.78
2022-11-16T23:25:54.946Z,98546.25
2022-11-16T23:28:21.870Z,98552.41
2022-11-16T23:30:48.852Z,98542.06
2022-11-16T23:33:15.287Z,98540.09
2022-11-16T23:35:42.303Z,98537.16
2022-11-16T23:38:09.387Z,98526.81
2022-11-16T23:40:38.454Z,98525.69
2022-11-16T23:43:24.510Z,98521.50
2022-11-16T23:45:51.651Z,98509.50
2022-11-16T23:48:19.298Z,98507.53
2022-11-16T23:50:46.441Z,98494.59
2022-11-16T23:53:14.535Z,98490.22
2022-11-16T23:55:41.201Z,98488.53
2022-11-16T23:58:13.271Z,98478.13
